sensor_id;sensor_type;location;lat;lon;timestamp;P1;durP1;ratioP1;P2;durP2;ratioP2
67904;SDS011;54709;43.614;1.576;2023-02-22T00:00:22;21.30;;;15.75;;
67904;SDS011;54709;43.614;1.576;2023-02-22T00:02:53;24.05;;;15.65;;
67904;SDS011;54709;43.614;1.576;2023-02-22T00:07:49;23.38;;;16.88;;
67904;SDS011;54709;43.614;1.576;2023-02-22T00:10:15;22.35;;;15.43;;
67904;SDS011;54709;43.614;1.576;2023-02-22T00:12:44;23.40;;;16.85;;
67904;SDS011;54709;43.614;1.576;2023-02-22T00:15:13;23.80;;;18.25;;
67904;SDS011;54709;43.614;1.576;2023-02-22T00:17:40;27.02;;;18.45;;
67904;SDS011;54709;43.614;1.576;2023-02-22T00:20:06;25.20;;;17.85;;
67904;SDS011;54709;43.614;1.576;2023-02-22T00:22:34;25.10;;;17.77;;
67904;SDS011;54709;43.614;1.576;2023-02-22T00:24:59;26.42;;;18.27;;
67904;SDS011;54709;43.614;1.576;2023-02-22T00:27:25;24.60;;;16.88;;
67904;SDS011;54709;43.614;1.576;2023-02-22T00:29:50;23.55;;;16.42;;
67904;SDS011;54709;43.614;1.576;2023-02-22T00:32:15;24.33;;;16.83;;
67904;SDS011;54709;43.614;1.576;2023-02-22T00:34:41;20.85;;;15.77;;
67904;SDS011;54709;43.614;1.576;2023-02-22T00:37:08;21.13;;;15.52;;
67904;SDS011;54709;43.614;1.576;2023-02-22T00:39:34;20.20;;;15.73;;
67904;SDS011;54709;43.614;1.576;2023-02-22T00:42:00;20.90;;;15.57;;
67904;SDS011;54709;43.614;1.576;2023-02-22T00:44:25;19.77;;;15.35;;
67904;SDS011;54709;43.614;1.576;2023-02-22T00:46:51;20.58;;;15.68;;
67904;SDS011;54709;43.614;1.576;2023-02-22T00:49:16;21.48;;;15.77;;
67904;SDS011;54709;43.614;1.576;2023-02-22T00:51:42;25.20;;;16.50;;
67904;SDS011;54709;43.614;1.576;2023-02-22T00:54:07;29.58;;;16.48;;
67904;SDS011;54709;43.614;1.576;2023-02-22T00:56:34;20.50;;;15.63;;
67904;SDS011;54709;43.614;1.576;2023-02-22T00:59:01;20.60;;;15.75;;
67904;SDS011;54709;43.614;1.576;2023-02-22T01:01:27;21.90;;;16.27;;
67904;SDS011;54709;43.614;1.576;2023-02-22T01:03:52;27.60;;;17.70;;
67904;SDS011;54709;43.614;1.576;2023-02-22T01:06:18;20.00;;;15.55;;
67904;SDS011;54709;43.614;1.576;2023-02-22T01:08:44;18.60;;;15.68;;
67904;SDS011;54709;43.614;1.576;2023-02-22T01:11:10;25.20;;;15.52;;
67904;SDS011;54709;43.614;1.576;2023-02-22T01:13:36;21.35;;;15.48;;
67904;SDS011;54709;43.614;1.576;2023-02-22T01:16:01;23.52;;;17.83;;
67904;SDS011;54709;43.614;1.576;2023-02-22T01:18:27;25.70;;;18.50;;
67904;SDS011;54709;43.614;1.576;2023-02-22T01:20:52;24.85;;;18.33;;
67904;SDS011;54709;43.614;1.576;2023-02-22T01:23:18;29.70;;;19.13;;
67904;SDS011;54709;43.614;1.576;2023-02-22T01:25:43;24.13;;;18.63;;
67904;SDS011;54709;43.614;1.576;2023-02-22T01:28:09;23.25;;;17.55;;
67904;SDS011;54709;43.614;1.576;2023-02-22T01:30:35;25.02;;;17.45;;
67904;SDS011;54709;43.614;1.576;2023-02-22T01:33:02;23.85;;;17.05;;
67904;SDS011;54709;43.614;1.576;2023-02-22T01:35:30;27.25;;;16.80;;
67904;SDS011;54709;43.614;1.576;2023-02-22T01:37:57;23.33;;;17.52;;
67904;SDS011;54709;43.614;1.576;2023-02-22T01:40:24;20.33;;;15.88;;
67904;SDS011;54709;43.614;1.576;2023-02-22T01:42:51;21.90;;;17.48;;
67904;SDS011;54709;43.614;1.576;2023-02-22T01:48:16;23.05;;;18.17;;
67904;SDS011;54709;43.614;1.576;2023-02-22T01:50:53;23.50;;;17.30;;
67904;SDS011;54709;43.614;1.576;2023-02-22T01:54:05;23.13;;;16.30;;
67904;SDS011;54709;43.614;1.576;2023-02-22T01:56:22;25.02;;;16.98;;
67904;SDS011;54709;43.614;1.576;2023-02-22T01:58:50;22.73;;;16.05;;
67904;SDS011;54709;43.614;1.576;2023-02-22T02:01:18;27.13;;;17.25;;
67904;SDS011;54709;43.614;1.576;2023-02-22T02:03:45;24.02;;;16.65;;
67904;SDS011;54709;43.614;1.576;2023-02-22T02:06:13;20.85;;;15.43;;
67904;SDS011;54709;43.614;1.576;2023-02-22T02:08:52;22.23;;;15.90;;
67904;SDS011;54709;43.614;1.576;2023-02-22T02:11:34;24.23;;;16.45;;
67904;SDS011;54709;43.614;1.576;2023-02-22T02:14:00;23.00;;;16.08;;
67904;SDS011;54709;43.614;1.576;2023-02-22T02:16:36;21.35;;;15.52;;
67904;SDS011;54709;43.614;1.576;2023-02-22T02:19:02;19.60;;;15.48;;
67904;SDS011;54709;43.614;1.576;2023-02-22T02:32:38;19.40;;;14.73;;
67904;SDS011;54709;43.614;1.576;2023-02-22T02:35:13;24.23;;;16.15;;
67904;SDS011;54709;43.614;1.576;2023-02-22T02:38:02;24.02;;;17.73;;
67904;SDS011;54709;43.614;1.576;2023-02-22T02:43:27;24.70;;;16.88;;
67904;SDS011;54709;43.614;1.576;2023-02-22T02:46:02;24.40;;;17.77;;
67904;SDS011;54709;43.614;1.576;2023-02-22T02:48:41;20.40;;;15.88;;
67904;SDS011;54709;43.614;1.576;2023-02-22T02:51:09;25.95;;;17.38;;
67904;SDS011;54709;43.614;1.576;2023-02-22T02:53:38;22.15;;;16.98;;
67904;SDS011;54709;43.614;1.576;2023-02-22T02:56:06;22.27;;;16.55;;
67904;SDS011;54709;43.614;1.576;2023-02-22T02:58:32;24.00;;;16.67;;
67904;SDS011;54709;43.614;1.576;2023-02-22T03:00:58;21.63;;;16.15;;
67904;SDS011;54709;43.614;1.576;2023-02-22T03:07:18;22.17;;;16.87;;
67904;SDS011;54709;43.614;1.576;2023-02-22T03:09:38;22.05;;;16.75;;
67904;SDS011;54709;43.614;1.576;2023-02-22T03:20:47;21.60;;;17.02;;
67904;SDS011;54709;43.614;1.576;2023-02-22T03:25:50;23.13;;;16.65;;
67904;SDS011;54709;43.614;1.576;2023-02-22T03:28:27;20.88;;;16.20;;
67904;SDS011;54709;43.614;1.576;2023-02-22T03:33:34;20.45;;;16.27;;
67904;SDS011;54709;43.614;1.576;2023-02-22T03:36:13;21.92;;;15.98;;
67904;SDS011;54709;43.614;1.576;2023-02-22T03:38:42;20.67;;;16.42;;
67904;SDS011;54709;43.614;1.576;2023-02-22T03:41:09;16.70;;;13.52;;
67904;SDS011;54709;43.614;1.576;2023-02-22T03:43:39;18.17;;;14.60;;
67904;SDS011;54709;43.614;1.576;2023-02-22T03:46:07;20.15;;;15.30;;
67904;SDS011;54709;43.614;1.576;2023-02-22T03:51:27;19.50;;;14.70;;
67904;SDS011;54709;43.614;1.576;2023-02-22T03:53:53;21.08;;;14.18;;
67904;SDS011;54709;43.614;1.576;2023-02-22T03:56:22;19.67;;;14.48;;
67904;SDS011;54709;43.614;1.576;2023-02-22T03:58:50;18.35;;;13.88;;
67904;SDS011;54709;43.614;1.576;2023-02-22T04:01:16;17.85;;;13.85;;
67904;SDS011;54709;43.614;1.576;2023-02-22T04:03:43;20.08;;;13.25;;
67904;SDS011;54709;43.614;1.576;2023-02-22T04:06:09;18.83;;;14.63;;
67904;SDS011;54709;43.614;1.576;2023-02-22T04:08:35;21.52;;;15.07;;
67904;SDS011;54709;43.614;1.576;2023-02-22T04:11:02;22.98;;;15.40;;
67904;SDS011;54709;43.614;1.576;2023-02-22T04:13:28;18.65;;;14.55;;
67904;SDS011;54709;43.614;1.576;2023-02-22T04:15:53;18.45;;;14.95;;
67904;SDS011;54709;43.614;1.576;2023-02-22T04:18:19;21.27;;;15.77;;
67904;SDS011;54709;43.614;1.576;2023-02-22T04:20:44;18.05;;;15.60;;
67904;SDS011;54709;43.614;1.576;2023-02-22T04:23:10;23.17;;;16.33;;
67904;SDS011;54709;43.614;1.576;2023-02-22T04:25:35;19.55;;;15.70;;
67904;SDS011;54709;43.614;1.576;2023-02-22T04:28:01;20.17;;;15.88;;
67904;SDS011;54709;43.614;1.576;2023-02-22T04:30:26;20.65;;;15.75;;
67904;SDS011;54709;43.614;1.576;2023-02-22T04:32:54;20.40;;;15.63;;
67904;SDS011;54709;43.614;1.576;2023-02-22T04:35:20;24.00;;;16.38;;
67904;SDS011;54709;43.614;1.576;2023-02-22T04:37:45;19.98;;;15.52;;
67904;SDS011;54709;43.614;1.576;2023-02-22T04:40:10;22.23;;;15.60;;
67904;SDS011;54709;43.614;1.576;2023-02-22T04:42:36;21.52;;;15.63;;
67904;SDS011;54709;43.614;1.576;2023-02-22T04:45:02;18.08;;;14.38;;
67904;SDS011;54709;43.614;1.576;2023-02-22T04:47:29;17.33;;;14.70;;
67904;SDS011;54709;43.614;1.576;2023-02-22T04:49:54;19.02;;;15.27;;
67904;SDS011;54709;43.614;1.576;2023-02-22T04:52:20;21.42;;;15.77;;
67904;SDS011;54709;43.614;1.576;2023-02-22T04:54:45;19.80;;;16.20;;
67904;SDS011;54709;43.614;1.576;2023-02-22T04:57:11;22.95;;;16.67;;
67904;SDS011;54709;43.614;1.576;2023-02-22T04:59:36;26.05;;;16.48;;
67904;SDS011;54709;43.614;1.576;2023-02-22T05:02:02;22.98;;;17.15;;
67904;SDS011;54709;43.614;1.576;2023-02-22T05:04:27;20.73;;;16.42;;
67904;SDS011;54709;43.614;1.576;2023-02-22T05:06:53;21.70;;;16.50;;
67904;SDS011;54709;43.614;1.576;2023-02-22T05:09:18;24.60;;;17.00;;
67904;SDS011;54709;43.614;1.576;2023-02-22T05:11:44;24.23;;;17.33;;
67904;SDS011;54709;43.614;1.576;2023-02-22T05:14:09;20.00;;;16.90;;
67904;SDS011;54709;43.614;1.576;2023-02-22T05:16:34;20.58;;;16.20;;
67904;SDS011;54709;43.614;1.576;2023-02-22T05:19:00;21.77;;;17.92;;
67904;SDS011;54709;43.614;1.576;2023-02-22T05:21:25;21.17;;;17.00;;
67904;SDS011;54709;43.614;1.576;2023-02-22T05:23:51;21.50;;;16.73;;
67904;SDS011;54709;43.614;1.576;2023-02-22T05:26:16;22.20;;;18.08;;
67904;SDS011;54709;43.614;1.576;2023-02-22T05:28:41;22.38;;;17.25;;
67904;SDS011;54709;43.614;1.576;2023-02-22T05:31:07;26.27;;;18.00;;
67904;SDS011;54709;43.614;1.576;2023-02-22T05:33:32;22.98;;;17.80;;
67904;SDS011;54709;43.614;1.576;2023-02-22T05:35:58;23.02;;;18.42;;
67904;SDS011;54709;43.614;1.576;2023-02-22T05:38:23;24.73;;;17.52;;
67904;SDS011;54709;43.614;1.576;2023-02-22T05:40:49;25.98;;;18.10;;
67904;SDS011;54709;43.614;1.576;2023-02-22T05:43:14;24.65;;;17.75;;
67904;SDS011;54709;43.614;1.576;2023-02-22T05:45:40;20.50;;;16.95;;
67904;SDS011;54709;43.614;1.576;2023-02-22T05:48:06;24.63;;;18.05;;
67904;SDS011;54709;43.614;1.576;2023-02-22T05:50:32;22.92;;;17.75;;
67904;SDS011;54709;43.614;1.576;2023-02-22T05:52:57;23.33;;;17.67;;
67904;SDS011;54709;43.614;1.576;2023-02-22T05:55:23;22.88;;;17.88;;
67904;SDS011;54709;43.614;1.576;2023-02-22T05:57:49;25.10;;;18.42;;
67904;SDS011;54709;43.614;1.576;2023-02-22T06:00:16;26.45;;;19.25;;
67904;SDS011;54709;43.614;1.576;2023-02-22T06:02:44;24.88;;;19.63;;
67904;SDS011;54709;43.614;1.576;2023-02-22T06:05:09;23.15;;;19.02;;
67904;SDS011;54709;43.614;1.576;2023-02-22T06:07:35;27.25;;;19.60;;
67904;SDS011;54709;43.614;1.576;2023-02-22T06:10:00;27.65;;;19.20;;
67904;SDS011;54709;43.614;1.576;2023-02-22T06:12:26;25.98;;;18.60;;
67904;SDS011;54709;43.614;1.576;2023-02-22T06:14:51;24.17;;;18.55;;
67904;SDS011;54709;43.614;1.576;2023-02-22T06:17:16;26.50;;;19.27;;
67904;SDS011;54709;43.614;1.576;2023-02-22T06:19:42;27.42;;;19.00;;
67904;SDS011;54709;43.614;1.576;2023-02-22T06:22:07;24.88;;;19.05;;
67904;SDS011;54709;43.614;1.576;2023-02-22T06:24:38;25.48;;;18.35;;
67904;SDS011;54709;43.614;1.576;2023-02-22T06:27:04;27.77;;;18.98;;
67904;SDS011;54709;43.614;1.576;2023-02-22T06:29:29;24.88;;;18.70;;
67904;SDS011;54709;43.614;1.576;2023-02-22T06:31:55;26.08;;;18.48;;
67904;SDS011;54709;43.614;1.576;2023-02-22T06:34:21;24.55;;;19.20;;
67904;SDS011;54709;43.614;1.576;2023-02-22T06:36:46;25.70;;;18.88;;
67904;SDS011;54709;43.614;1.576;2023-02-22T06:39:13;25.02;;;18.83;;
67904;SDS011;54709;43.614;1.576;2023-02-22T06:41:43;28.27;;;19.23;;
67904;SDS011;54709;43.614;1.576;2023-02-22T06:44:09;24.88;;;19.13;;
67904;SDS011;54709;43.614;1.576;2023-02-22T06:46:35;22.98;;;19.00;;
67904;SDS011;54709;43.614;1.576;2023-02-22T06:49:01;25.98;;;18.88;;
67904;SDS011;54709;43.614;1.576;2023-02-22T06:51:27;26.95;;;18.52;;
67904;SDS011;54709;43.614;1.576;2023-02-22T06:53:53;27.35;;;19.10;;
67904;SDS011;54709;43.614;1.576;2023-02-22T06:56:18;27.15;;;20.00;;
67904;SDS011;54709;43.614;1.576;2023-02-22T06:58:44;25.95;;;19.52;;
67904;SDS011;54709;43.614;1.576;2023-02-22T07:01:10;30.33;;;19.65;;
67904;SDS011;54709;43.614;1.576;2023-02-22T07:03:35;23.63;;;18.92;;
67904;SDS011;54709;43.614;1.576;2023-02-22T07:06:01;24.40;;;18.77;;
67904;SDS011;54709;43.614;1.576;2023-02-22T07:08:27;27.73;;;19.27;;
67904;SDS011;54709;43.614;1.576;2023-02-22T07:10:53;25.33;;;19.17;;
67904;SDS011;54709;43.614;1.576;2023-02-22T07:13:18;23.63;;;18.80;;
67904;SDS011;54709;43.614;1.576;2023-02-22T07:15:44;25.08;;;19.27;;
67904;SDS011;54709;43.614;1.576;2023-02-22T07:18:09;26.67;;;20.10;;
67904;SDS011;54709;43.614;1.576;2023-02-22T07:20:36;25.00;;;18.67;;
67904;SDS011;54709;43.614;1.576;2023-02-22T07:23:01;27.70;;;19.50;;
67904;SDS011;54709;43.614;1.576;2023-02-22T07:25:27;25.45;;;19.63;;
67904;SDS011;54709;43.614;1.576;2023-02-22T07:27:53;23.88;;;18.65;;
67904;SDS011;54709;43.614;1.576;2023-02-22T07:30:26;29.40;;;19.98;;
67904;SDS011;54709;43.614;1.576;2023-02-22T07:33:01;28.25;;;19.70;;
67904;SDS011;54709;43.614;1.576;2023-02-22T07:35:29;24.75;;;19.42;;
67904;SDS011;54709;43.614;1.576;2023-02-22T07:38:00;28.13;;;20.17;;
67904;SDS011;54709;43.614;1.576;2023-02-22T07:40:26;28.65;;;20.00;;
67904;SDS011;54709;43.614;1.576;2023-02-22T07:42:52;28.80;;;19.30;;
67904;SDS011;54709;43.614;1.576;2023-02-22T07:47:49;27.25;;;18.08;;
67904;SDS011;54709;43.614;1.576;2023-02-22T07:50:15;28.38;;;17.88;;
67904;SDS011;54709;43.614;1.576;2023-02-22T07:52:45;26.08;;;18.45;;
67904;SDS011;54709;43.614;1.576;2023-02-22T07:55:12;26.33;;;19.48;;
67904;SDS011;54709;43.614;1.576;2023-02-22T07:57:39;27.02;;;18.85;;
67904;SDS011;54709;43.614;1.576;2023-02-22T08:00:04;26.60;;;19.08;;
67904;SDS011;54709;43.614;1.576;2023-02-22T08:02:30;25.67;;;18.55;;
67904;SDS011;54709;43.614;1.576;2023-02-22T08:04:55;29.13;;;19.48;;
67904;SDS011;54709;43.614;1.576;2023-02-22T08:07:20;27.48;;;19.42;;
67904;SDS011;54709;43.614;1.576;2023-02-22T08:09:46;27.52;;;20.55;;
67904;SDS011;54709;43.614;1.576;2023-02-22T08:12:11;29.63;;;19.63;;
67904;SDS011;54709;43.614;1.576;2023-02-22T08:14:37;30.10;;;19.38;;
67904;SDS011;54709;43.614;1.576;2023-02-22T08:17:02;41.83;;;28.17;;
67904;SDS011;54709;43.614;1.576;2023-02-22T08:19:27;63.45;;;39.35;;
67904;SDS011;54709;43.614;1.576;2023-02-22T08:21:53;44.63;;;29.77;;
67904;SDS011;54709;43.614;1.576;2023-02-22T08:24:18;43.20;;;25.77;;
67904;SDS011;54709;43.614;1.576;2023-02-22T08:26:46;33.10;;;22.50;;
67904;SDS011;54709;43.614;1.576;2023-02-22T08:29:12;32.95;;;20.17;;
67904;SDS011;54709;43.614;1.576;2023-02-22T08:31:38;38.95;;;20.75;;
67904;SDS011;54709;43.614;1.576;2023-02-22T08:34:04;30.52;;;19.75;;
67904;SDS011;54709;43.614;1.576;2023-02-22T08:36:29;36.28;;;21.67;;
67904;SDS011;54709;43.614;1.576;2023-02-22T08:38:56;32.42;;;20.02;;
67904;SDS011;54709;43.614;1.576;2023-02-22T08:41:22;31.50;;;19.58;;
67904;SDS011;54709;43.614;1.576;2023-02-22T08:43:48;30.63;;;19.42;;
67904;SDS011;54709;43.614;1.576;2023-02-22T08:46:15;32.05;;;20.42;;
67904;SDS011;54709;43.614;1.576;2023-02-22T08:48:50;32.45;;;18.58;;
67904;SDS011;54709;43.614;1.576;2023-02-22T08:51:16;35.55;;;18.90;;
67904;SDS011;54709;43.614;1.576;2023-02-22T08:53:42;31.85;;;20.27;;
67904;SDS011;54709;43.614;1.576;2023-02-22T08:56:08;32.75;;;19.45;;
67904;SDS011;54709;43.614;1.576;2023-02-22T08:58:33;33.20;;;19.77;;
67904;SDS011;54709;43.614;1.576;2023-02-22T09:00:59;38.60;;;19.73;;
67904;SDS011;54709;43.614;1.576;2023-02-22T09:03:24;37.03;;;19.77;;
67904;SDS011;54709;43.614;1.576;2023-02-22T09:05:50;32.85;;;19.25;;
67904;SDS011;54709;43.614;1.576;2023-02-22T09:08:15;34.90;;;20.73;;
67904;SDS011;54709;43.614;1.576;2023-02-22T09:10:41;41.42;;;19.58;;
67904;SDS011;54709;43.614;1.576;2023-02-22T09:13:06;35.95;;;20.90;;
67904;SDS011;54709;43.614;1.576;2023-02-22T09:15:32;34.15;;;20.83;;
67904;SDS011;54709;43.614;1.576;2023-02-22T09:18:00;39.40;;;21.02;;
67904;SDS011;54709;43.614;1.576;2023-02-22T09:20:26;37.63;;;19.30;;
67904;SDS011;54709;43.614;1.576;2023-02-22T09:22:52;39.00;;;21.23;;
67904;SDS011;54709;43.614;1.576;2023-02-22T09:25:18;39.33;;;21.33;;
67904;SDS011;54709;43.614;1.576;2023-02-22T09:27:47;36.95;;;22.48;;
67904;SDS011;54709;43.614;1.576;2023-02-22T09:30:20;37.75;;;21.77;;
67904;SDS011;54709;43.614;1.576;2023-02-22T09:32:48;41.42;;;22.73;;
67904;SDS011;54709;43.614;1.576;2023-02-22T09:35:14;42.75;;;23.00;;
67904;SDS011;54709;43.614;1.576;2023-02-22T09:37:40;47.70;;;22.63;;
67904;SDS011;54709;43.614;1.576;2023-02-22T09:40:10;41.15;;;23.90;;
67904;SDS011;54709;43.614;1.576;2023-02-22T09:42:43;42.67;;;22.40;;
67904;SDS011;54709;43.614;1.576;2023-02-22T09:45:21;47.97;;;23.27;;
67904;SDS011;54709;43.614;1.576;2023-02-22T09:47:48;38.60;;;22.45;;
67904;SDS011;54709;43.614;1.576;2023-02-22T09:50:22;39.55;;;22.45;;
67904;SDS011;54709;43.614;1.576;2023-02-22T09:52:53;42.20;;;23.98;;
67904;SDS011;54709;43.614;1.576;2023-02-22T09:57:49;44.47;;;21.95;;
67904;SDS011;54709;43.614;1.576;2023-02-22T10:00:18;42.15;;;23.55;;
67904;SDS011;54709;43.614;1.576;2023-02-22T10:05:35;51.25;;;23.25;;
67904;SDS011;54709;43.614;1.576;2023-02-22T10:08:04;44.75;;;23.38;;
67904;SDS011;54709;43.614;1.576;2023-02-22T10:10:37;44.13;;;22.50;;
67904;SDS011;54709;43.614;1.576;2023-02-22T10:13:08;47.13;;;23.20;;
67904;SDS011;54709;43.614;1.576;2023-02-22T10:26:17;49.05;;;23.05;;
67904;SDS011;54709;43.614;1.576;2023-02-22T10:28:49;54.20;;;25.25;;
67904;SDS011;54709;43.614;1.576;2023-02-22T10:31:32;53.25;;;25.98;;
67904;SDS011;54709;43.614;1.576;2023-02-22T10:34:04;52.35;;;25.95;;
67904;SDS011;54709;43.614;1.576;2023-02-22T10:36:34;53.20;;;26.15;;
67904;SDS011;54709;43.614;1.576;2023-02-22T10:39:19;56.67;;;26.83;;
67904;SDS011;54709;43.614;1.576;2023-02-22T10:41:48;52.80;;;25.75;;
67904;SDS011;54709;43.614;1.576;2023-02-22T10:44:17;61.22;;;26.75;;
67904;SDS011;54709;43.614;1.576;2023-02-22T10:46:43;62.22;;;28.13;;
67904;SDS011;54709;43.614;1.576;2023-02-22T10:49:09;59.97;;;29.23;;
67904;SDS011;54709;43.614;1.576;2023-02-22T10:51:42;62.38;;;28.80;;
67904;SDS011;54709;43.614;1.576;2023-02-22T10:57:12;51.33;;;28.08;;
67904;SDS011;54709;43.614;1.576;2023-02-22T10:59:37;69.15;;;28.92;;
67904;SDS011;54709;43.614;1.576;2023-02-22T11:02:47;53.25;;;26.67;;
67904;SDS011;54709;43.614;1.576;2023-02-22T11:04:54;71.32;;;27.90;;
67904;SDS011;54709;43.614;1.576;2023-02-22T11:09:57;69.30;;;29.58;;
67904;SDS011;54709;43.614;1.576;2023-02-22T11:12:26;59.25;;;28.55;;
67904;SDS011;54709;43.614;1.576;2023-02-22T11:14:56;66.57;;;28.83;;
67904;SDS011;54709;43.614;1.576;2023-02-22T11:17:27;69.18;;;27.45;;
67904;SDS011;54709;43.614;1.576;2023-02-22T11:19:55;65.60;;;28.92;;
67904;SDS011;54709;43.614;1.576;2023-02-22T11:25:02;68.55;;;27.80;;
67904;SDS011;54709;43.614;1.576;2023-02-22T11:30:09;65.17;;;29.37;;
67904;SDS011;54709;43.614;1.576;2023-02-22T11:32:44;53.65;;;26.50;;
67904;SDS011;54709;43.614;1.576;2023-02-22T11:35:47;52.40;;;25.63;;
67904;SDS011;54709;43.614;1.576;2023-02-22T11:44:26;51.25;;;27.27;;
67904;SDS011;54709;43.614;1.576;2023-02-22T11:46:54;48.38;;;23.95;;
67904;SDS011;54709;43.614;1.576;2023-02-22T11:49:24;43.05;;;23.33;;
67904;SDS011;54709;43.614;1.576;2023-02-22T11:52:04;48.08;;;25.65;;
67904;SDS011;54709;43.614;1.576;2023-02-22T12:06:58;51.00;;;26.08;;
67904;SDS011;54709;43.614;1.576;2023-02-22T12:19:59;43.80;;;23.60;;
67904;SDS011;54709;43.614;1.576;2023-02-22T12:22:32;43.20;;;24.90;;
67904;SDS011;54709;43.614;1.576;2023-02-22T12:27:54;39.83;;;23.50;;
67904;SDS011;54709;43.614;1.576;2023-02-22T12:30:23;41.47;;;22.55;;
67904;SDS011;54709;43.614;1.576;2023-02-22T12:32:53;37.30;;;21.33;;
67904;SDS011;54709;43.614;1.576;2023-02-22T12:35:24;36.95;;;20.20;;
67904;SDS011;54709;43.614;1.576;2023-02-22T12:37:59;41.08;;;20.88;;
67904;SDS011;54709;43.614;1.576;2023-02-22T12:40:37;33.75;;;19.35;;
67904;SDS011;54709;43.614;1.576;2023-02-22T12:51:39;37.28;;;20.73;;
67904;SDS011;54709;43.614;1.576;2023-02-22T12:54:13;36.75;;;20.20;;
67904;SDS011;54709;43.614;1.576;2023-02-22T12:56:56;39.40;;;22.02;;
67904;SDS011;54709;43.614;1.576;2023-02-22T13:02:00;34.33;;;19.02;;
67904;SDS011;54709;43.614;1.576;2023-02-22T13:04:34;46.50;;;22.92;;
67904;SDS011;54709;43.614;1.576;2023-02-22T13:12:59;68.60;;;35.72;;
67904;SDS011;54709;43.614;1.576;2023-02-22T13:16:06;56.13;;;27.85;;
67904;SDS011;54709;43.614;1.576;2023-02-22T13:21:28;43.97;;;22.38;;
67904;SDS011;54709;43.614;1.576;2023-02-22T13:24:00;41.60;;;22.33;;
67904;SDS011;54709;43.614;1.576;2023-02-22T13:26:33;40.38;;;20.00;;
67904;SDS011;54709;43.614;1.576;2023-02-22T13:46:36;39.30;;;20.38;;
67904;SDS011;54709;43.614;1.576;2023-02-22T13:51:48;33.95;;;20.58;;
67904;SDS011;54709;43.614;1.576;2023-02-22T13:56:51;39.22;;;20.48;;
67904;SDS011;54709;43.614;1.576;2023-02-22T13:59:36;39.20;;;21.25;;
67904;SDS011;54709;43.614;1.576;2023-02-22T14:02:04;46.83;;;23.38;;
67904;SDS011;54709;43.614;1.576;2023-02-22T14:15:26;47.80;;;22.70;;
67904;SDS011;54709;43.614;1.576;2023-02-22T14:17:46;45.80;;;22.30;;
67904;SDS011;54709;43.614;1.576;2023-02-22T14:20:29;36.05;;;20.38;;
67904;SDS011;54709;43.614;1.576;2023-02-22T14:26:08;35.17;;;19.25;;
67904;SDS011;54709;43.614;1.576;2023-02-22T14:31:26;33.83;;;19.10;;
67904;SDS011;54709;43.614;1.576;2023-02-22T14:37:11;41.03;;;19.50;;
67904;SDS011;54709;43.614;1.576;2023-02-22T14:42:18;32.88;;;19.30;;
67904;SDS011;54709;43.614;1.576;2023-02-22T14:55:57;34.70;;;18.55;;
67904;SDS011;54709;43.614;1.576;2023-02-22T14:58:36;39.95;;;20.13;;
67904;SDS011;54709;43.614;1.576;2023-02-22T15:01:24;32.05;;;17.33;;
67904;SDS011;54709;43.614;1.576;2023-02-22T15:03:59;30.20;;;18.00;;
67904;SDS011;54709;43.614;1.576;2023-02-22T15:06:40;34.20;;;17.85;;
67904;SDS011;54709;43.614;1.576;2023-02-22T15:11:35;34.72;;;17.73;;
67904;SDS011;54709;43.614;1.576;2023-02-22T15:14:00;38.53;;;19.85;;
67904;SDS011;54709;43.614;1.576;2023-02-22T15:16:30;33.22;;;17.23;;
67904;SDS011;54709;43.614;1.576;2023-02-22T15:18:58;36.25;;;18.52;;
67904;SDS011;54709;43.614;1.576;2023-02-22T15:21:25;35.42;;;19.58;;
67904;SDS011;54709;43.614;1.576;2023-02-22T15:23:54;35.67;;;18.17;;
67904;SDS011;54709;43.614;1.576;2023-02-22T15:26:35;34.15;;;19.88;;
67904;SDS011;54709;43.614;1.576;2023-02-22T15:29:09;37.13;;;17.60;;
67904;SDS011;54709;43.614;1.576;2023-02-22T15:31:38;33.83;;;18.83;;
67904;SDS011;54709;43.614;1.576;2023-02-22T15:36:41;30.95;;;17.45;;
67904;SDS011;54709;43.614;1.576;2023-02-22T15:39:20;32.42;;;17.33;;
67904;SDS011;54709;43.614;1.576;2023-02-22T15:42:07;44.10;;;19.77;;
67904;SDS011;54709;43.614;1.576;2023-02-22T15:44:35;33.03;;;18.65;;
67904;SDS011;54709;43.614;1.576;2023-02-22T15:47:02;30.23;;;18.13;;
67904;SDS011;54709;43.614;1.576;2023-02-22T15:49:28;39.70;;;18.33;;
67904;SDS011;54709;43.614;1.576;2023-02-22T15:52:07;34.45;;;17.60;;
67904;SDS011;54709;43.614;1.576;2023-02-22T15:54:40;36.97;;;17.75;;
67904;SDS011;54709;43.614;1.576;2023-02-22T15:57:07;35.92;;;19.15;;
67904;SDS011;54709;43.614;1.576;2023-02-22T15:59:38;32.17;;;19.00;;
67904;SDS011;54709;43.614;1.576;2023-02-22T16:02:20;30.05;;;19.25;;
67904;SDS011;54709;43.614;1.576;2023-02-22T16:04:58;37.45;;;21.05;;
67904;SDS011;54709;43.614;1.576;2023-02-22T16:07:28;38.08;;;22.40;;
67904;SDS011;54709;43.614;1.576;2023-02-22T16:09:54;40.60;;;22.88;;
67904;SDS011;54709;43.614;1.576;2023-02-22T16:14:46;39.53;;;21.67;;
67904;SDS011;54709;43.614;1.576;2023-02-22T16:19:55;39.15;;;20.42;;
67904;SDS011;54709;43.614;1.576;2023-02-22T16:22:27;36.20;;;17.98;;
67904;SDS011;54709;43.614;1.576;2023-02-22T16:24:52;34.83;;;21.15;;
67904;SDS011;54709;43.614;1.576;2023-02-22T16:27:20;33.63;;;21.20;;
67904;SDS011;54709;43.614;1.576;2023-02-22T16:30:04;30.17;;;16.88;;
67904;SDS011;54709;43.614;1.576;2023-02-22T16:32:45;26.15;;;13.98;;
67904;SDS011;54709;43.614;1.576;2023-02-22T16:35:12;25.10;;;13.77;;
67904;SDS011;54709;43.614;1.576;2023-02-22T16:37:44;24.58;;;12.98;;
67904;SDS011;54709;43.614;1.576;2023-02-22T16:40:18;35.58;;;21.30;;
67904;SDS011;54709;43.614;1.576;2023-02-22T16:42:46;34.72;;;21.10;;
67904;SDS011;54709;43.614;1.576;2023-02-22T16:45:15;25.85;;;15.80;;
67904;SDS011;54709;43.614;1.576;2023-02-22T16:47:41;29.92;;;19.70;;
67904;SDS011;54709;43.614;1.576;2023-02-22T16:50:07;31.60;;;18.20;;
67904;SDS011;54709;43.614;1.576;2023-02-22T16:52:32;22.77;;;13.63;;
67904;SDS011;54709;43.614;1.576;2023-02-22T16:54:58;19.67;;;10.75;;
67904;SDS011;54709;43.614;1.576;2023-02-22T16:57:25;17.75;;;9.73;;
67904;SDS011;54709;43.614;1.576;2023-02-22T16:59:53;19.80;;;9.52;;
67904;SDS011;54709;43.614;1.576;2023-02-22T17:02:19;19.98;;;9.90;;
67904;SDS011;54709;43.614;1.576;2023-02-22T17:04:45;19.33;;;10.32;;
67904;SDS011;54709;43.614;1.576;2023-02-22T17:07:20;20.73;;;10.75;;
67904;SDS011;54709;43.614;1.576;2023-02-22T17:09:53;22.50;;;13.27;;
67904;SDS011;54709;43.614;1.576;2023-02-22T17:12:22;27.73;;;13.55;;
67904;SDS011;54709;43.614;1.576;2023-02-22T17:14:48;24.73;;;13.63;;
67904;SDS011;54709;43.614;1.576;2023-02-22T17:17:14;28.83;;;14.00;;
67904;SDS011;54709;43.614;1.576;2023-02-22T17:19:39;27.95;;;13.32;;
67904;SDS011;54709;43.614;1.576;2023-02-22T17:22:05;24.30;;;12.30;;
67904;SDS011;54709;43.614;1.576;2023-02-22T17:24:33;27.13;;;12.77;;
67904;SDS011;54709;43.614;1.576;2023-02-22T17:26:59;29.23;;;12.20;;
67904;SDS011;54709;43.614;1.576;2023-02-22T17:29:25;24.08;;;12.77;;
67904;SDS011;54709;43.614;1.576;2023-02-22T17:31:52;19.65;;;11.43;;
67904;SDS011;54709;43.614;1.576;2023-02-22T17:34:17;23.08;;;12.30;;
67904;SDS011;54709;43.614;1.576;2023-02-22T17:36:43;23.63;;;12.10;;